Time;durP1;ratioP1;P1;durP2;ratioP2;P2;SDS_P1;SDS_P2;PMS_P1;PMS_P2;Temp;Humidity;BMP_temperature;BMP_pressure;BME280_temperature;BME280_humidity;BME280_pressure;Samples;Min_cycle;Max_cycle;Signal;HPM_P1;HPM_P2
2021/04/30 00:01:48;;;;;;;0.63;0.20;;;22.80;34.50;;;;;;5028264;28;20045;-46
2021/04/30 00:04:14;;;;;;;6.22;0.30;;;22.80;34.00;;;;;;5029415;28;20120;-46
2021/04/30 00:06:40;;;;;;;0.90;0.40;;;22.80;34.00;;;;;;5028874;28;20037;-46
2021/04/30 00:09:06;;;;;;;0.77;0.15;;;22.80;34.00;;;;;;5029873;28;20026;-46
2021/04/30 00:11:31;;;;;;;0.93;0.20;;;22.80;34.00;;;;;;5017887;28;20597;-45
2021/04/30 00:13:57;;;;;;;1.73;0.20;;;22.80;34.00;;;;;;5027821;28;20113;-46
2021/04/30 00:16:22;;;;;;;0.77;0.20;;;22.70;34.00;;;;;;5029746;28;20037;-47
2021/04/30 00:18:48;;;;;;;1.08;0.20;;;22.80;34.00;;;;;;5029800;28;20080;-46
2021/04/30 00:21:14;;;;;;;0.50;0.20;;;22.80;34.00;;;;;;5024116;28;20033;-47
2021/04/30 00:23:40;;;;;;;1.23;0.35;;;22.70;33.90;;;;;;5028396;28;20034;-46
2021/04/30 00:26:07;;;;;;;0.77;0.10;;;22.80;34.00;;;;;;5022228;28;20036;-49
2021/04/30 00:28:33;;;;;;;0.88;0.20;;;22.70;34.00;;;;;;5026045;28;20027;-44
2021/04/30 00:30:59;;;;;;;1.35;0.20;;;22.70;34.00;;;;;;5027960;28;20025;-46
2021/04/30 00:33:25;;;;;;;0.60;0.10;;;22.70;34.00;;;;;;5028906;28;20659;-44
2021/04/30 00:35:52;;;;;;;0.70;0.30;;;22.70;34.00;;;;;;5028249;28;20483;-46
2021/04/30 00:38:18;;;;;;;1.02;0.13;;;22.70;34.00;;;;;;5029546;28;20037;-47
2021/04/30 00:40:45;;;;;;;0.93;0.30;;;22.70;34.00;;;;;;5028501;28;20041;-44
2021/04/30 00:43:11;;;;;;;2.83;0.17;;;22.70;34.00;;;;;;5027046;28;20078;-47
2021/04/30 00:45:37;;;;;;;3.28;0.35;;;22.70;34.00;;;;;;5028632;28;20029;-47
2021/04/30 00:48:03;;;;;;;0.55;0.20;;;22.70;34.00;;;;;;5022756;28;20013;-47
2021/04/30 00:50:29;;;;;;;1.05;0.40;;;22.60;34.00;;;;;;5028200;28;20025;-45
2021/04/30 00:52:55;;;;;;;0.85;0.28;;;22.70;34.10;;;;;;5031346;28;20548;-46
2021/04/30 00:55:22;;;;;;;0.30;0.15;;;22.60;34.00;;;;;;5028560;28;20108;-45
2021/04/30 00:57:56;;;;;;;0.40;0.10;;;22.60;34.00;;;;;;5026834;28;20040;-46
2021/04/30 01:00:24;;;;;;;0.77;0.10;;;22.70;34.00;;;;;;5022150;28;20033;-44
2021/04/30 01:02:50;;;;;;;1.42;0.20;;;22.60;34.00;;;;;;5029130;28;20033;-45
2021/04/30 01:05:17;;;;;;;1.77;0.20;;;22.60;34.00;;;;;;5027525;28;20405;-45
2021/04/30 01:07:43;;;;;;;2.55;0.20;;;22.60;34.00;;;;;;5029224;28;20021;-43
2021/04/30 01:10:10;;;;;;;0.47;0.10;;;22.60;34.00;;;;;;5025128;28;20490;-47
2021/04/30 01:12:36;;;;;;;0.63;0.20;;;22.60;34.00;;;;;;5025527;28;20025;-44
2021/04/30 01:15:02;;;;;;;0.63;0.30;;;22.60;34.00;;;;;;5028032;28;20112;-45
2021/04/30 01:17:28;;;;;;;0.60;0.10;;;22.60;34.00;;;;;;5028590;28;20033;-43
2021/04/30 01:19:59;;;;;;;1.15;0.20;;;22.60;34.00;;;;;;5027514;28;20502;-46
2021/04/30 01:22:43;;;;;;;1.92;0.10;;;22.60;34.10;;;;;;5029225;28;20041;-44
2021/04/30 01:25:11;;;;;;;0.50;0.10;;;22.60;34.10;;;;;;5026198;28;20466;-47
2021/04/30 01:27:38;;;;;;;0.30;0.10;;;22.60;34.10;;;;;;5028402;28;20094;-43
2021/04/30 01:30:10;;;;;;;0.50;0.20;;;22.60;34.10;;;;;;5024309;28;20056;-46
2021/04/30 01:32:35;;;;;;;1.23;0.30;;;22.60;34.10;;;;;;5027331;28;20527;-45
2021/04/30 01:35:03;;;;;;;0.63;0.15;;;22.60;34.10;;;;;;5025042;28;20029;-44
2021/04/30 01:37:28;;;;;;;2.25;0.20;;;22.60;34.10;;;;;;5027539;28;20037;-45
2021/04/30 01:39:54;;;;;;;0.40;0.20;;;22.50;34.10;;;;;;5028676;28;20037;-42
2021/04/30 01:42:19;;;;;;;1.02;0.25;;;22.60;34.10;;;;;;5028624;28;20083;-44
2021/04/30 01:44:48;;;;;;;1.42;0.13;;;22.60;34.10;;;;;;5027387;28;20502;-46
2021/04/30 01:47:14;;;;;;;1.65;0.10;;;22.60;34.10;;;;;;5026822;28;20033;-44
2021/04/30 01:49:40;;;;;;;0.40;0.20;;;22.50;34.10;;;;;;5027826;28;20021;-44
2021/04/30 01:52:05;;;;;;;0.50;0.20;;;22.50;34.10;;;;;;5029065;28;20029;-44
2021/04/30 01:54:31;;;;;;;0.45;0.10;;;22.50;34.10;;;;;;5027850;28;20530;-43
2021/04/30 01:56:56;;;;;;;0.80;0.20;;;22.50;34.60;;;;;;5025105;28;20026;-46
2021/04/30 01:59:22;;;;;;;0.32;0.10;;;22.50;34.10;;;;;;5027668;28;20025;-45
2021/04/30 02:01:47;;;;;;;0.50;0.20;;;22.50;34.10;;;;;;5028515;28;20037;-45
2021/04/30 02:04:13;;;;;;;0.90;0.20;;;22.50;34.10;;;;;;5025528;28;20018;-45
2021/04/30 02:06:40;;;;;;;1.23;0.20;;;22.50;34.10;;;;;;5026943;28;20051;-45
2021/04/30 02:09:07;;;;;;;0.40;0.20;;;22.50;34.10;;;;;;5023979;28;20108;-46
2021/04/30 02:11:34;;;;;;;0.77;0.20;;;22.50;34.10;;;;;;5028487;28;20029;-49
2021/04/30 02:14:00;;;;;;;1.10;0.20;;;22.50;34.10;;;;;;5027007;28;20025;-45
2021/04/30 02:16:25;;;;;;;0.63;0.20;;;22.50;34.10;;;;;;5022589;28;20037;-45
2021/04/30 02:18:51;;;;;;;0.70;0.17;;;22.50;34.10;;;;;;5021227;28;20073;-42
2021/04/30 02:21:17;;;;;;;0.93;0.30;;;22.50;34.10;;;;;;5028492;28;20398;-45
2021/04/30 02:23:42;;;;;;;0.52;0.20;;;22.50;34.10;;;;;;5021875;28;20034;-44
2021/04/30 02:26:08;;;;;;;0.93;0.28;;;22.50;34.10;;;;;;5022232;28;20025;-49
2021/04/30 02:28:33;;;;;;;1.10;0.17;;;22.50;34.10;;;;;;5022164;28;20105;-45
2021/04/30 02:30:59;;;;;;;0.63;0.25;;;22.50;34.10;;;;;;5030424;28;20510;-45
2021/04/30 02:33:24;;;;;;;0.57;0.20;;;22.50;34.20;;;;;;5030914;28;20021;-46
2021/04/30 02:35:51;;;;;;;0.80;0.40;;;22.40;34.10;;;;;;5031090;28;20057;-49
2021/04/30 02:38:18;;;;;;;0.45;0.20;;;22.40;34.10;;;;;;5031057;28;20473;-49
2021/04/30 02:40:47;;;;;;;0.95;0.20;;;22.40;34.10;;;;;;5032089;28;20037;-46
2021/04/30 02:43:16;;;;;;;1.58;0.30;;;22.40;34.10;;;;;;5029210;28;20029;-45
2021/04/30 02:45:43;;;;;;;1.13;0.25;;;22.40;34.10;;;;;;5023588;28;20037;-48
2021/04/30 02:48:23;;;;;;;1.10;0.30;;;22.40;34.10;;;;;;5033231;28;20037;-44
2021/04/30 02:50:49;;;;;;;0.85;0.10;;;22.40;34.10;;;;;;5031460;28;20554;-45
2021/04/30 02:53:14;;;;;;;0.68;0.20;;;22.40;34.10;;;;;;5029784;28;20071;-47
2021/04/30 02:55:40;;;;;;;0.70;0.30;;;22.40;34.20;;;;;;5021655;28;20486;-47
2021/04/30 02:58:06;;;;;;;0.65;0.20;;;22.40;34.20;;;;;;5030799;28;20502;-46
2021/04/30 03:00:32;;;;;;;1.45;0.30;;;22.40;34.20;;;;;;5031818;28;20142;-46
2021/04/30 03:02:58;;;;;;;0.77;0.17;;;22.40;34.20;;;;;;5030258;28;20494;-45
2021/04/30 03:05:23;;;;;;;0.75;0.25;;;22.40;34.20;;;;;;5030622;28;20030;-44
2021/04/30 03:07:49;;;;;;;2.80;0.35;;;22.40;34.20;;;;;;5031012;28;20056;-45
2021/04/30 03:10:16;;;;;;;0.50;0.20;;;22.40;34.20;;;;;;5029230;28;20067;-48
2021/04/30 03:12:42;;;;;;;0.80;0.40;;;22.40;34.20;;;;;;5024773;28;20033;-45
2021/04/30 03:15:08;;;;;;;0.50;0.13;;;22.40;34.20;;;;;;5030300;28;20030;-48
2021/04/30 03:17:34;;;;;;;1.45;0.30;;;22.40;34.20;;;;;;5030668;28;20025;-47
2021/04/30 03:19:59;;;;;;;0.60;0.20;;;22.40;34.20;;;;;;5030793;28;20056;-45
2021/04/30 03:22:25;;;;;;;0.60;0.20;;;22.40;34.20;;;;;;5031009;28;20072;-45
2021/04/30 03:24:51;;;;;;;1.30;0.30;;;22.40;34.30;;;;;;5019676;28;20483;-48
2021/04/30 03:27:17;;;;;;;1.73;0.30;;;22.30;34.20;;;;;;5029290;28;20532;-46
2021/04/30 03:29:42;;;;;;;0.95;0.20;;;22.30;34.20;;;;;;5026703;28;20028;-48
2021/04/30 03:32:08;;;;;;;0.85;0.30;;;22.30;34.20;;;;;;5030110;28;20032;-45
2021/04/30 03:34:37;;;;;;;0.43;0.10;;;22.30;34.20;;;;;;5027947;28;20025;-45
2021/04/30 03:37:04;;;;;;;0.57;0.20;;;22.30;34.20;;;;;;5030498;28;20084;-49
2021/04/30 03:39:30;;;;;;;1.23;0.20;;;22.30;34.20;;;;;;5030013;28;20031;-44
2021/04/30 03:41:55;;;;;;;1.38;0.20;;;22.30;34.20;;;;;;5029437;28;20021;-47
2021/04/30 03:44:21;;;;;;;1.02;0.38;;;22.30;34.20;;;;;;5028871;28;20666;-46
2021/04/30 03:46:47;;;;;;;0.77;0.17;;;22.30;34.20;;;;;;5024338;28;20108;-48
2021/04/30 03:49:12;;;;;;;1.35;0.40;;;22.30;34.20;;;;;;5029624;28;20080;-44
2021/04/30 03:51:38;;;;;;;0.50;0.20;;;22.30;34.20;;;;;;5030566;28;20028;-43
2021/04/30 03:54:04;;;;;;;1.17;0.20;;;22.30;34.20;;;;;;5029688;28;20045;-44
2021/04/30 03:56:29;;;;;;;1.00;0.30;;;22.30;34.20;;;;;;5029217;28;20029;-47
2021/04/30 03:58:55;;;;;;;0.77;0.30;;;22.30;34.20;;;;;;5030256;28;20140;-46
2021/04/30 04:01:20;;;;;;;1.17;0.30;;;22.30;34.30;;;;;;5029810;28;20037;-48
2021/04/30 04:03:46;;;;;;;0.50;0.15;;;22.30;34.30;;;;;;5030320;28;20593;-45
2021/04/30 04:06:12;;;;;;;0.50;0.20;;;22.30;34.30;;;;;;5029443;28;20402;-46
2021/04/30 04:08:37;;;;;;;0.70;0.30;;;22.30;34.30;;;;;;5030084;28;20021;-47
2021/04/30 04:11:03;;;;;;;0.98;0.32;;;22.30;34.30;;;;;;5031772;28;20112;-47
2021/04/30 04:13:28;;;;;;;0.60;0.20;;;22.30;34.80;;;;;;5029630;28;20025;-46
2021/04/30 04:15:57;;;;;;;0.80;0.30;;;22.30;34.30;;;;;;5033196;28;20088;-48
2021/04/30 04:18:24;;;;;;;1.45;0.32;;;22.20;34.20;;;;;;5034435;28;20036;-49
2021/04/30 04:20:50;;;;;;;1.30;0.20;;;22.30;34.30;;;;;;5031721;28;20029;-45
2021/04/30 04:23:15;;;;;;;0.85;0.20;;;22.20;34.30;;;;;;5025159;28;20036;-46
2021/04/30 04:25:41;;;;;;;0.93;0.40;;;22.20;34.30;;;;;;5026176;28;20025;-46
2021/04/30 04:28:08;;;;;;;1.83;0.20;;;22.20;34.30;;;;;;5029156;28;20029;-45
2021/04/30 04:30:34;;;;;;;1.55;0.52;;;22.20;34.30;;;;;;5018303;28;20021;-45
2021/04/30 04:33:00;;;;;;;1.98;0.20;;;22.20;34.30;;;;;;5029390;28;20030;-45
2021/04/30 04:35:26;;;;;;;1.05;0.20;;;22.20;34.30;;;;;;5026192;28;20033;-44
2021/04/30 04:37:52;;;;;;;1.17;0.20;;;22.20;34.30;;;;;;5028642;28;20029;-45
2021/04/30 04:40:18;;;;;;;1.45;0.30;;;22.20;34.30;;;;;;5029953;28;20040;-47
2021/04/30 04:42:44;;;;;;;1.42;0.40;;;22.20;34.30;;;;;;5023614;28;20034;-47
2021/04/30 04:45:12;;;;;;;0.77;0.35;;;22.20;34.30;;;;;;5025272;28;20434;-46
2021/04/30 04:47:37;;;;;;;1.15;0.40;;;22.20;34.30;;;;;;5030245;28;20057;-46
2021/04/30 04:50:04;;;;;;;0.75;0.30;;;22.20;34.40;;;;;;5028628;28;20057;-46
2021/04/30 04:52:29;;;;;;;1.90;0.40;;;22.20;34.40;;;;;;5028793;28;20033;-46
2021/04/30 04:54:55;;;;;;;1.35;0.47;;;22.20;34.30;;;;;;5027953;28;20415;-46
2021/04/30 04:57:21;;;;;;;1.45;0.60;;;22.20;34.30;;;;;;5018710;28;20025;-47
2021/04/30 04:59:46;;;;;;;1.45;0.40;;;22.20;34.90;;;;;;5024998;28;20022;-47
2021/04/30 05:02:12;;;;;;;0.95;0.45;;;22.20;34.40;;;;;;5028550;28;20116;-46
2021/04/30 05:04:37;;;;;;;1.38;0.30;;;22.20;34.40;;;;;;5028651;28;20029;-42
2021/04/30 05:07:03;;;;;;;1.48;0.38;;;22.20;34.40;;;;;;5025383;28;20033;-46
2021/04/30 05:09:29;;;;;;;1.55;0.60;;;22.20;34.40;;;;;;5029369;28;20390;-47
2021/04/30 05:11:55;;;;;;;0.77;0.40;;;22.20;34.40;;;;;;5027985;28;20025;-46
2021/04/30 05:14:21;;;;;;;2.17;0.40;;;22.20;34.40;;;;;;5026675;28;20045;-45
2021/04/30 05:16:46;;;;;;;1.50;0.40;;;22.20;34.40;;;;;;5026612;28;20064;-45
2021/04/30 05:19:12;;;;;;;1.90;0.93;;;22.10;34.30;;;;;;5028418;28;20045;-47
2021/04/30 05:21:40;;;;;;;2.55;0.80;;;22.20;34.40;;;;;;5027631;28;20029;-44
2021/04/30 05:24:07;;;;;;;1.80;0.40;;;22.10;34.30;;;;;;5027841;28;20030;-45
2021/04/30 05:26:34;;;;;;;0.77;0.50;;;22.20;34.40;;;;;;5028187;28;20037;-45
2021/04/30 05:28:59;;;;;;;0.95;0.70;;;22.10;34.40;;;;;;5020801;28;20038;-44
2021/04/30 05:31:26;;;;;;;3.22;0.77;;;22.20;34.40;;;;;;5027580;28;20372;-46
2021/04/30 05:33:51;;;;;;;1.85;0.68;;;22.10;34.40;;;;;;5029128;28;20020;-45
2021/04/30 05:36:17;;;;;;;1.70;0.63;;;22.10;34.40;;;;;;5027992;28;20390;-47
2021/04/30 05:38:43;;;;;;;1.00;0.50;;;22.10;34.40;;;;;;5028038;28;20036;-46
2021/04/30 05:41:09;;;;;;;1.25;0.77;;;22.10;34.40;;;;;;5023609;28;20038;-48
2021/04/30 05:43:35;;;;;;;2.53;0.80;;;22.10;34.40;;;;;;5028034;28;20033;-46
2021/04/30 05:46:00;;;;;;;3.25;0.90;;;22.10;34.40;;;;;;5027484;28;20490;-45
2021/04/30 05:48:26;;;;;;;2.03;0.70;;;22.10;34.40;;;;;;5028924;28;20419;-47
2021/04/30 05:50:51;;;;;;;1.65;0.80;;;22.10;34.90;;;;;;5025382;28;20038;-46
2021/04/30 05:53:17;;;;;;;1.35;0.77;;;22.10;34.40;;;;;;5024609;28;20040;-47
2021/04/30 05:55:42;;;;;;;1.65;0.90;;;22.10;34.40;;;;;;5028978;28;20045;-45
2021/04/30 05:58:08;;;;;;;1.35;0.60;;;22.10;34.40;;;;;;5026675;28;20136;-43
2021/04/30 06:00:34;;;;;;;2.05;0.65;;;22.10;34.40;;;;;;5025424;28;20079;-45
2021/04/30 06:02:59;;;;;;;1.50;0.85;;;22.10;34.50;;;;;;5021167;28;20022;-45
2021/04/30 06:05:25;;;;;;;2.50;0.65;;;22.10;34.50;;;;;;5030061;28;20025;-48
2021/04/30 06:07:50;;;;;;;1.50;0.80;;;22.20;34.50;;;;;;5031852;28;20021;-44
2021/04/30 06:10:16;;;;;;;2.28;0.80;;;22.30;34.40;;;;;;5031568;28;20116;-44
2021/04/30 06:12:42;;;;;;;2.90;1.17;;;22.50;34.10;;;;;;5028229;28;20021;-45
2021/04/30 06:15:08;;;;;;;2.97;1.08;;;22.60;34.00;;;;;;5030789;28;20638;-45
2021/04/30 06:17:33;;;;;;;2.90;0.98;;;22.70;33.80;;;;;;5029072;28;20057;-46
2021/04/30 06:19:59;;;;;;;1.63;1.27;;;22.80;33.70;;;;;;5031762;28;20060;-46
2021/04/30 06:22:25;;;;;;;2.22;0.90;;;22.90;33.60;;;;;;5019318;28;20118;-47
2021/04/30 06:24:50;;;;;;;1.67;0.95;;;23.00;33.50;;;;;;5031665;28;20517;-46
2021/04/30 06:27:17;;;;;;;2.00;1.25;;;23.00;33.50;;;;;;5031247;28;20101;-49
2021/04/30 06:29:42;;;;;;;2.83;1.58;;;23.10;33.50;;;;;;5028393;28;20030;-44
2021/04/30 06:32:08;;;;;;;1.98;1.65;;;23.10;33.40;;;;;;5030724;28;20029;-45
2021/04/30 06:34:34;;;;;;;3.10;1.20;;;23.10;33.40;;;;;;5031852;28;20022;-47
2021/04/30 06:36:59;;;;;;;1.80;1.65;;;23.10;33.50;;;;;;5028405;28;20032;-44
2021/04/30 06:39:25;;;;;;;3.63;2.40;;;23.10;33.60;;;;;;5031983;28;20061;-48
2021/04/30 06:41:51;;;;;;;3.90;2.53;;;23.10;33.60;;;;;;5031862;28;20071;-44
2021/04/30 06:44:17;;;;;;;6.25;2.90;;;23.10;33.60;;;;;;5031673;28;20029;-45
2021/04/30 06:46:43;;;;;;;6.15;3.58;;;23.20;33.70;;;;;;5026848;28;20030;-45
2021/04/30 06:49:09;;;;;;;5.60;4.05;;;23.10;33.70;;;;;;5029083;28;20708;-45
2021/04/30 06:51:34;;;;;;;5.80;3.60;;;23.10;33.70;;;;;;5030224;28;20100;-44
2021/04/30 06:54:01;;;;;;;5.38;3.80;;;23.10;33.70;;;;;;5031811;28;20453;-47
2021/04/30 06:56:30;;;;;;;5.50;4.13;;;23.10;33.80;;;;;;5030608;28;20128;-41
2021/04/30 06:58:56;;;;;;;10.00;4.95;;;23.10;33.80;;;;;;5029810;28;20079;-43
2021/04/30 07:01:21;;;;;;;8.60;4.85;;;23.00;33.80;;;;;;5027633;28;20437;-43
2021/04/30 07:03:47;;;;;;;7.47;4.93;;;23.10;34.00;;;;;;5031594;28;20021;-44
2021/04/30 07:06:16;;;;;;;8.23;4.90;;;23.00;33.90;;;;;;5022562;28;20037;-47
2021/04/30 07:08:42;;;;;;;9.23;5.10;;;23.00;33.90;;;;;;5027289;28;20103;-45
2021/04/30 07:11:08;;;;;;;9.95;5.45;;;23.00;34.00;;;;;;5019070;28;20489;-44
2021/04/30 07:13:35;;;;;;;9.73;4.60;;;23.00;34.00;;;;;;5030139;28;20029;-43
2021/04/30 07:16:05;;;;;;;8.52;5.63;;;23.00;34.10;;;;;;5028250;28;20037;-47
2021/04/30 07:18:31;;;;;;;7.55;5.43;;;22.90;34.00;;;;;;5029280;28;20738;-47
2021/04/30 07:20:57;;;;;;;12.30;5.80;;;22.90;34.10;;;;;;5030131;28;20033;-47
2021/04/30 07:23:24;;;;;;;8.23;5.63;;;22.90;34.10;;;;;;5031262;28;20060;-43
2021/04/30 07:25:50;;;;;;;9.07;5.68;;;22.90;34.10;;;;;;5026815;28;20084;-44
2021/04/30 07:28:16;;;;;;;9.18;6.57;;;22.90;34.10;;;;;;5021944;28;20095;-45
2021/04/30 07:30:43;;;;;;;12.52;6.35;;;22.90;34.10;;;;;;5019703;28;20022;-49
2021/04/30 07:33:08;;;;;;;12.65;6.85;;;22.90;34.20;;;;;;5028965;28;20033;-46
2021/04/30 07:35:34;;;;;;;11.10;6.57;;;22.90;34.20;;;;;;5027869;28;20034;-44
2021/04/30 07:37:59;;;;;;;9.68;6.82;;;22.90;34.20;;;;;;5029899;28;20026;-44
2021/04/30 07:40:25;;;;;;;10.57;6.93;;;22.80;34.20;;;;;;5028251;28;20068;-48
2021/04/30 07:42:51;;;;;;;12.27;7.75;;;22.90;34.30;;;;;;5028348;28;20041;-49
2021/04/30 07:45:17;;;;;;;13.95;7.40;;;22.90;34.30;;;;;;5027995;28;20037;-46
2021/04/30 07:47:43;;;;;;;13.80;7.68;;;23.00;34.20;;;;;;5026276;28;20047;-48
2021/04/30 07:50:09;;;;;;;10.60;6.63;;;23.10;34.30;;;;;;5024089;28;20033;-48
2021/04/30 07:52:34;;;;;;;16.00;8.02;;;23.10;34.50;;;;;;5024422;28;20032;-46
2021/04/30 07:55:03;;;;;;;14.52;8.43;;;23.10;34.50;;;;;;5027170;28;20033;-47
2021/04/30 07:57:34;;;;;;;11.23;8.25;;;23.00;34.70;;;;;;5024886;28;20033;-49
2021/04/30 08:00:00;;;;;;;11.77;8.15;;;23.10;34.80;;;;;;5021791;28;20025;-53
2021/04/30 08:02:26;;;;;;;15.20;9.13;;;23.10;34.90;;;;;;5021772;28;20033;-51
2021/04/30 08:04:51;;;;;;;12.45;9.50;;;23.10;34.90;;;;;;5027397;28;20040;-48
2021/04/30 08:07:17;;;;;;;11.23;8.10;;;23.10;34.90;;;;;;5029290;28;20025;-49
2021/04/30 08:09:43;;;;;;;19.10;9.43;;;23.10;35.00;;;;;;5024044;28;20022;-48
2021/04/30 08:12:09;;;;;;;11.75;8.02;;;23.10;35.00;;;;;;5025320;28;20034;-47
2021/04/30 08:14:34;;;;;;;12.48;8.63;;;23.00;35.00;;;;;;5025582;28;20022;-47
2021/04/30 08:17:00;;;;;;;12.75;8.65;;;22.90;35.10;;;;;;5023024;28;20080;-44
2021/04/30 08:19:26;;;;;;;13.38;8.73;;;22.90;35.10;;;;;;5027814;28;20032;-46
2021/04/30 08:21:52;;;;;;;17.00;9.85;;;22.80;35.20;;;;;;5023492;28;20034;-47
2021/04/30 08:24:20;;;;;;;13.85;9.27;;;22.80;35.20;;;;;;5021737;28;20033;-46
2021/04/30 08:26:45;;;;;;;11.52;8.98;;;22.80;35.20;;;;;;5025706;28;20494;-45
2021/04/30 08:29:11;;;;;;;14.93;9.35;;;22.80;35.10;;;;;;5023291;28;20033;-48
2021/04/30 08:31:37;;;;;;;13.18;9.85;;;22.80;35.10;;;;;;5021763;28;20033;-44
2021/04/30 08:34:03;;;;;;;14.00;8.80;;;22.80;35.10;;;;;;5028944;28;20542;-48
2021/04/30 08:36:29;;;;;;;16.88;10.98;;;22.80;35.10;;;;;;5028618;28;20089;-47
2021/04/30 08:38:54;;;;;;;13.73;9.88;;;22.80;35.10;;;;;;5029002;28;20025;-46
2021/04/30 08:41:24;;;;;;;14.63;9.18;;;22.80;35.00;;;;;;5020150;28;20045;-46
2021/04/30 08:43:51;;;;;;;15.20;9.65;;;22.80;35.10;;;;;;5023986;28;20437;-45
2021/04/30 08:46:17;;;;;;;13.60;9.40;;;22.80;35.00;;;;;;5026794;28;20026;-45
2021/04/30 08:48:44;;;;;;;13.43;9.52;;;22.80;35.00;;;;;;5028366;28;20022;-45
2021/04/30 08:51:10;;;;;;;14.23;10.20;;;22.70;35.00;;;;;;5025223;28;20053;-48
2021/04/30 08:53:36;;;;;;;12.93;9.60;;;22.80;35.00;;;;;;5026596;28;20368;-46
2021/04/30 08:56:04;;;;;;;13.27;9.27;;;22.80;34.90;;;;;;5025572;28;20033;-48
2021/04/30 08:58:33;;;;;;;16.90;10.88;;;22.80;35.10;;;;;;5023946;28;20394;-48
2021/04/30 09:00:59;;;;;;;16.83;10.55;;;22.80;35.10;;;;;;5021567;28;20033;-47
2021/04/30 09:03:25;;;;;;;14.23;10.05;;;22.80;35.10;;;;;;5024692;28;20026;-49
2021/04/30 09:05:55;;;;;;;15.32;10.00;;;22.80;35.20;;;;;;5022294;28;20115;-45
2021/04/30 09:08:23;;;;;;;13.68;9.23;;;22.90;35.30;;;;;;5019662;28;20105;-45
2021/04/30 09:10:50;;;;;;;15.23;9.85;;;22.90;35.20;;;;;;5028374;28;20021;-45
2021/04/30 09:13:20;;;;;;;16.67;10.07;;;22.90;35.20;;;;;;5022122;28;20026;-47
2021/04/30 09:15:48;;;;;;;14.40;9.38;;;22.90;35.20;;;;;;5025330;28;20147;-44
2021/04/30 09:18:19;;;;;;;14.05;9.60;;;22.90;35.40;;;;;;5027193;28;20112;-48
2021/04/30 09:20:47;;;;;;;12.80;9.88;;;22.90;35.50;;;;;;5027936;28;20068;-48
2021/04/30 09:23:38;;;;;;;14.43;9.68;;;22.90;35.60;;;;;;5024493;28;20126;-48
2021/04/30 09:26:24;;;;;;;14.65;10.32;;;22.90;35.60;;;;;;5020449;28;20065;-46
2021/04/30 09:28:59;;;;;;;14.15;9.85;;;23.00;35.70;;;;;;5026964;28;20386;-46
2021/04/30 09:31:41;;;;;;;12.40;9.75;;;22.90;35.70;;;;;;5025695;28;20014;-44
2021/04/30 09:34:23;;;;;;;13.25;9.75;;;22.90;35.80;;;;;;5027055;28;20029;-45
2021/04/30 09:37:15;;;;;;;12.27;8.57;;;23.00;35.80;;;;;;5028119;28;20051;-44
2021/04/30 09:39:53;;;;;;;10.70;9.05;;;23.00;35.80;;;;;;5025261;28;20045;-49
2021/04/30 09:42:27;;;;;;;11.35;8.82;;;23.00;35.90;;;;;;5028086;28;20037;-46
2021/04/30 09:44:56;;;;;;;17.25;8.40;;;23.00;35.80;;;;;;5023274;28;20631;-47
2021/04/30 09:47:33;;;;;;;11.07;9.18;;;23.00;35.80;;;;;;5024344;28;20498;-48
2021/04/30 09:50:19;;;;;;;13.85;8.90;;;23.10;35.80;;;;;;5019440;28;20112;-45
2021/04/30 09:52:56;;;;;;;10.38;8.27;;;23.00;35.90;;;;;;5028323;28;20398;-48
2021/04/30 09:55:22;;;;;;;12.13;9.00;;;23.00;36.00;;;;;;5024157;28;20033;-47
2021/04/30 09:57:49;;;;;;;13.55;8.25;;;23.00;36.00;;;;;;5024973;28;20030;-45
2021/04/30 10:00:16;;;;;;;14.32;8.15;;;23.00;35.90;;;;;;5030195;28;20041;-49
2021/04/30 10:02:44;;;;;;;13.32;8.65;;;23.00;36.00;;;;;;5031023;28;20090;-45
2021/04/30 10:05:17;;;;;;;10.88;7.80;;;23.00;36.10;;;;;;5033152;28;20025;-48
2021/04/30 10:07:43;;;;;;;13.15;7.65;;;23.00;36.00;;;;;;5035144;28;20018;-46
2021/04/30 10:10:11;;;;;;;14.70;8.63;;;23.10;36.10;;;;;;5024411;28;20057;-48
2021/04/30 10:12:39;;;;;;;13.80;8.52;;;23.10;36.10;;;;;;5020447;28;20043;-45
2021/04/30 10:15:07;;;;;;;11.82;8.95;;;23.10;36.10;;;;;;5026028;28;20380;-46
2021/04/30 10:17:33;;;;;;;16.63;8.80;;;23.10;36.10;;;;;;5027754;28;20038;-44
2021/04/30 10:19:59;;;;;;;11.77;8.02;;;23.10;36.00;;;;;;5025543;28;20033;-48
2021/04/30 10:22:26;;;;;;;11.57;8.82;;;23.10;36.00;;;;;;5025771;28;20552;-46
2021/04/30 10:24:58;;;;;;;13.10;8.65;;;23.20;36.10;;;;;;5027954;28;20044;-48
2021/04/30 10:27:42;;;;;;;12.88;8.73;;;23.20;36.00;;;;;;5023876;28;20101;-49
2021/04/30 10:30:34;;;;;;;9.65;7.30;;;23.20;36.10;;;;;;5021349;28;20095;-46
2021/04/30 10:33:41;;;;;;;12.00;7.82;;;23.20;36.10;;;;;;5030473;28;20029;-49
2021/04/30 10:36:13;;;;;;;10.70;7.60;;;23.20;36.10;;;;;;5027718;28;20398;-44
2021/04/30 10:38:59;;;;;;;11.77;7.65;;;23.20;36.20;;;;;;5028010;28;20532;-44
2021/04/30 10:41:51;;;;;;;10.70;7.32;;;23.20;36.30;;;;;;5022879;28;20034;-49
2021/04/30 10:44:26;;;;;;;;;;;23.20;36.20;;;;;;5021874;28;20053;-51
2021/04/30 10:47:11;;;;;;;11.07;8.10;;;23.20;36.20;;;;;;5027532;28;20024;-50
2021/04/30 10:49:38;;;;;;;10.68;7.95;;;23.10;36.20;;;;;;5015077;28;20108;-50
2021/04/30 10:52:07;;;;;;;12.57;8.43;;;23.10;36.20;;;;;;5019654;28;20054;-47
2021/04/30 10:54:35;;;;;;;14.65;9.15;;;23.10;36.30;;;;;;5026867;28;20434;-45
2021/04/30 10:57:16;;;;;;;17.88;9.50;;;23.20;36.20;;;;;;5028299;28;20095;-45
2021/04/30 10:59:46;;;;;;;14.73;9.15;;;23.20;36.30;;;;;;5026536;28;20091;-46
2021/04/30 11:02:17;;;;;;;17.25;10.00;;;23.20;36.40;;;;;;5028101;28;20517;-51
2021/04/30 11:05:05;;;;;;;11.98;8.65;;;23.20;36.50;;;;;;5029451;28;20041;-49
2021/04/30 11:07:34;;;;;;;15.35;9.68;;;23.20;36.40;;;;;;5031366;28;20030;-46
2021/04/30 11:10:00;;;;;;;11.38;7.90;;;23.10;37.00;;;;;;5023521;28;20052;-50
2021/04/30 11:12:27;;;;;;;13.95;8.45;;;23.10;36.50;;;;;;5026996;28;20062;-51
2021/04/30 11:15:10;;;;;;;16.38;9.32;;;23.10;36.60;;;;;;5029368;28;20185;-55
2021/04/30 11:17:47;;;;;;;12.63;9.07;;;23.20;36.50;;;;;;5029020;28;20030;-50
2021/04/30 11:20:17;;;;;;;13.95;9.10;;;23.20;36.40;;;;;;5026317;28;20411;-47
2021/04/30 11:23:22;;;;;;;11.93;8.88;;;23.20;36.40;;;;;;5030079;28;20045;-50
2021/04/30 11:26:00;;;;;;;12.55;8.15;;;23.20;36.40;;;;;;5030058;28;20049;-51
2021/04/30 11:28:32;;;;;;;15.13;8.82;;;23.20;36.60;;;;;;5021278;28;20552;-49
2021/04/30 11:31:25;;;;;;;11.20;8.57;;;23.20;36.60;;;;;;5029268;28;20712;-48
2021/04/30 11:34:09;;;;;;;14.27;7.85;;;23.10;36.60;;;;;;5027552;28;20032;-47
2021/04/30 11:36:40;;;;;;;14.77;8.82;;;23.10;36.80;;;;;;5027773;28;20049;-48
2021/04/30 11:39:32;;;;;;;11.60;9.18;;;23.10;36.80;;;;;;5025990;28;20056;-51
2021/04/30 11:41:59;;;;;;;;;;;23.10;36.70;;;;;;5045102;28;20051;-44
2021/04/30 11:44:25;;;;;;;9.07;7.20;;;23.10;36.70;;;;;;5029079;28;19955;-46
2021/04/30 11:46:58;;;;;;;10.13;7.85;;;23.10;36.70;;;;;;5029882;28;20030;-44
2021/04/30 11:49:25;;;;;;;11.10;8.80;;;23.20;36.70;;;;;;5021048;28;20502;-52
2021/04/30 11:51:50;;;;;;;13.82;7.95;;;23.20;36.80;;;;;;5029413;28;20057;-48
2021/04/30 11:54:25;;;;;;;9.55;7.80;;;23.20;36.50;;;;;;5028494;28;20055;-45
2021/04/30 11:56:59;;;;;;;10.48;8.23;;;23.20;36.60;;;;;;5029400;28;20033;-45
2021/04/30 11:59:25;;;;;;;10.63;7.47;;;23.20;36.70;;;;;;5025610;28;20036;-47
2021/04/30 12:02:19;;;;;;;9.95;8.23;;;23.10;36.70;;;;;;5067647;23;20041;-47
2021/04/30 12:04:49;;;;;;;11.05;7.40;;;23.10;36.70;;;;;;5047409;28;20043;-46
2021/04/30 12:07:16;;;;;;;8.82;7.85;;;23.20;36.80;;;;;;5052135;28;20086;-49
2021/04/30 12:09:42;;;;;;;9.40;7.72;;;23.20;36.70;;;;;;5052360;28;20029;-47
2021/04/30 12:12:13;;;;;;;9.35;7.80;;;23.30;36.70;;;;;;5051619;28;20056;-43
2021/04/30 12:14:48;;;;;;;9.18;7.15;;;23.30;36.60;;;;;;5049218;28;20108;-45
2021/04/30 12:17:40;;;;;;;7.95;7.15;;;23.30;36.60;;;;;;5038354;28;20031;-48
2021/04/30 12:20:15;;;;;;;9.35;7.07;;;23.30;36.60;;;;;;5041417;28;20036;-46
2021/04/30 12:22:45;;;;;;;10.93;7.50;;;23.30;36.60;;;;;;5046279;28;20113;-42
2021/04/30 12:25:34;;;;;;;14.63;7.45;;;23.30;36.60;;;;;;5049815;28;20045;-48
2021/04/30 12:28:16;;;;;;;14.20;7.07;;;23.40;36.60;;;;;;5043924;28;20490;-51
2021/04/30 12:30:44;;;;;;;7.75;6.93;;;23.40;36.70;;;;;;5045723;28;20110;-49
2021/04/30 12:33:27;;;;;;;10.30;7.13;;;23.40;36.80;;;;;;5049597;28;20394;-46
2021/04/30 12:35:55;;;;;;;9.82;6.68;;;23.30;36.80;;;;;;5037776;28;20620;-47
2021/04/30 12:38:22;;;;;;;8.60;6.45;;;23.40;36.80;;;;;;5047826;28;20041;-51
2021/04/30 12:40:48;;;;;;;9.30;6.97;;;23.40;36.80;;;;;;5051185;28;20021;-44
2021/04/30 12:43:26;;;;;;;9.25;6.60;;;23.40;36.70;;;;;;5046537;28;20044;-50
2021/04/30 12:45:52;;;;;;;8.07;7.00;;;23.40;36.80;;;;;;5047737;28;20289;-48
2021/04/30 12:48:18;;;;;;;9.15;7.28;;;23.40;36.90;;;;;;5045452;28;20104;-50
2021/04/30 12:50:44;;;;;;;8.77;7.10;;;23.50;36.90;;;;;;5046566;28;20036;-47